Hlavní strana
METAR-TAF:

METAR-TAF

Letiště :

Dar es Salaam, Tanzanie

zeměpisná šířka: 06-52S, zeměpisná délka: 039-12E, výška: 55 m

Aktuální stav počasí

Zpráva byla vytvořena před 24 minutami, v 19:00 UTC
Jihovýchodní vítr 5 kt
Teplota 26°C
Vlhkost vzduchu 89%
Tlak 1014 hPa
Viditelnost 10 km a více
Skoro jasno ve výšce 1600 ft

METAR: HTDA 161900Z 13005KT 9999 FEW016 26/24 Q1014 NOSIG

Čas: 22:24 (19:24 UTC)

Předpověď počasí

Zpráva byla vytvořena před 8 hodinami a 24 minutami, v 11:00 UTC
Předpověď platná od 16 v 12 UTC do 17 v 18 UTC
Severovýchodní vítr 10 kt
Viditelnost 10 km a více
Polojasno ve výšce 2600 ft
Změna
od 16 v 21 UTC do 16 v 24 UTC
Severní vítr kt
Pravděpodobnost 30% :
Dočasný
od 17 v 05 UTC do 17 v 09 UTC
Východoseverovýchodní vítr 15 kt
Oblačno až skoro zataženo ve výšce 2200 ft
déšť
Změna
od 17 v 12 UTC do 17 v 15 UTC
Polojasno ve výšce 2500 ft

TAF: HTDA 161100Z 1612/1718 04010KT 9999 SCT026 BECMG 1621/1624 00000KT PROB30 TEMPO 1705/1709 06015KT RA BKN022 BECMG 1712/1715 SCT025

Stav a předpovědi počasí z více než 4 000 letišť (zprávy METAR a TAF).

Červené a žluté tečky na mapě představují dostupné meteorologické stanice.

Když kurzor umístíte na tečku, zobrazí se název stanice.

Pak kliknutím zobrazíte stav a předpověď počasí.

Chcete-li změnit mapu, kliknutím na zelené tlačítko se znaménkem +mapu přiblížíte, kliknutím na zelené tlačítko se znaménkem – mapu oddálíte a kliknutím na zelené šipky přejdete na sousední mapy.


METAR-TAF: